KBKE/BKE METAR and TAF weather

Enter ICAO airport designator
Station Type Date Time Source
KBKE METAR 2020/07/14 07:53 UTC NOAA

KBKE 140753Z AUTO VRB04KT 10SM CLR 13/01 A3008 RMK AO2 SLP164 T01280011 402720078


Station Type Date Time Source
KBKE Decoded METAR 2020/07/14 07:53 UTC NOAA

BAKER MUNICIPAL AIRPORT, OR, United States (KBKE) 44-50N 117-49W 1024M
Jul 14, 2020 - 03:53 AM EDT / 2020.07.14 0753 UTC
Wind: Variable at 5 MPH (4 KT):0
Visibility: 10 mile(s):0
Sky conditions: clear
Temperature: 55.0 F (12.8 C)
Dew Point: 34.0 F (1.1 C)
Relative Humidity: 44%
Pressure (altimeter): 30.08 in. Hg (1018 hPa)
ob: KBKE 140753Z AUTO VRB04KT 10SM CLR 13/01 A3008 RMK AO2 SLP164 T01280011 402720078
cycle: 8

Station Type Date Time Source
KBKE TAF 2020/07/14 06:22 UTC NOAA

TAF KBKE 140520Z 1406/1506 VRB05KT P6SM SKC
FM141800 32007KT P6SM SKC

Example: see airport list